createdAt,value
2018-08-10T00:00:37.794Z,100721.73
2018-08-10T00:03:06.100Z,100736.42
2018-08-10T00:05:35.504Z,100718.56
2018-08-10T00:08:04.797Z,100726.02
2018-08-10T00:10:34.079Z,100710.98
2018-08-10T00:13:02.348Z,100721.16
2018-08-10T00:15:30.646Z,100717.95
2018-08-10T00:17:58.944Z,100726.65
2018-08-10T00:20:27.226Z,100721.52
2018-08-10T00:22:55.492Z,100725.06
2018-08-10T00:25:24.769Z,100729.05
2018-08-10T00:27:53.087Z,100729.83
2018-08-10T00:30:21.349Z,100739.44
2018-08-10T00:32:50.535Z,100745.33
2018-08-10T00:35:18.840Z,100743.69
2018-08-10T00:37:48.089Z,100740.94
2018-08-10T00:40:19.849Z,100738.05
2018-08-10T00:42:48.150Z,100736.02
2018-08-10T00:45:17.164Z,100726.79
2018-08-10T00:47:45.934Z,100731.45
2018-08-10T00:50:15.229Z,100739.08
2018-08-10T00:52:44.529Z,100731.84
2018-08-10T00:55:14.163Z,100746.34
2018-08-10T00:57:42.846Z,100747.19
2018-08-10T01:00:12.844Z,100740.47
2018-08-10T01:02:41.446Z,100754.55
2018-08-10T01:05:10.521Z,100757.00
2018-08-10T01:07:39.813Z,100753.84
2018-08-10T01:10:11.480Z,100762.72
2018-08-10T01:12:41.034Z,100753.20
2018-08-10T01:15:11.497Z,100770.17
2018-08-10T01:17:40.317Z,100778.85
2018-08-10T01:20:24.042Z,100770.61
2018-08-10T01:22:57.637Z,100771.11
2018-08-10T01:25:27.561Z,100806.66
2018-08-10T01:28:03.357Z,100790.59
2018-08-10T01:30:32.724Z,100798.12
2018-08-10T01:33:01.209Z,100797.66
2018-08-10T01:35:30.069Z,100806.50
2018-08-10T01:38:00.525Z,100820.66
2018-08-10T01:40:28.889Z,100814.13
2018-08-10T01:42:57.184Z,100810.44
2018-08-10T01:45:25.480Z,100849.58
2018-08-10T01:47:53.904Z,100829.84
2018-08-10T01:50:22.197Z,100858.13
2018-08-10T01:52:50.485Z,100844.77
2018-08-10T01:55:19.841Z,100835.54
2018-08-10T01:57:48.137Z,100891.05
2018-08-10T02:00:16.401Z,100866.31
2018-08-10T02:02:44.656Z,100863.09
2018-08-10T02:05:14.013Z,100858.19
2018-08-10T02:07:43.884Z,100873.21
2018-08-10T02:10:14.153Z,100915.92
2018-08-10T02:12:44.256Z,100861.75
2018-08-10T02:15:15.723Z,100887.56
2018-08-10T02:17:44.003Z,100890.17
2018-08-10T02:20:13.820Z,100885.36
2018-08-10T02:22:43.294Z,100910.30
2018-08-10T02:25:14.153Z,100915.13
2018-08-10T02:27:43.425Z,100923.47
2018-08-10T02:30:13.260Z,100903.02
2018-08-10T02:32:42.539Z,100918.31
2018-08-10T02:35:10.948Z,100923.42
2018-08-10T02:37:39.809Z,100927.98
2018-08-10T02:40:15.400Z,100913.77
2018-08-10T02:42:44.766Z,100910.22
2018-08-10T02:45:13.321Z,100927.63
2018-08-10T02:47:41.620Z,100926.59
2018-08-10T02:50:09.938Z,100935.20
2018-08-10T02:52:38.217Z,100932.20
2018-08-10T02:55:07.705Z,100941.64
2018-08-10T02:57:36.073Z,100962.33
2018-08-10T03:00:05.501Z,100948.46
2018-08-10T03:02:33.781Z,100953.13
2018-08-10T03:05:03.117Z,100954.09
2018-08-10T03:07:31.481Z,100959.84
2018-08-10T03:10:00.793Z,100965.35
2018-08-10T03:12:31.092Z,100968.20
2018-08-10T03:15:00.397Z,100987.81
2018-08-10T03:17:28.690Z,100984.12
2018-08-10T03:19:56.963Z,100993.11
2018-08-10T03:22:25.271Z,100992.52
2018-08-10T03:24:53.557Z,101004.75
2018-08-10T03:27:21.859Z,101017.05
2018-08-10T03:29:50.146Z,101025.07
2018-08-10T03:32:18.463Z,101018.70
2018-08-10T03:34:46.725Z,101020.08
2018-08-10T03:37:16.076Z,101021.19
2018-08-10T03:39:44.350Z,101011.98
2018-08-10T03:42:12.646Z,101012.45
2018-08-10T03:44:40.934Z,101026.19
2018-08-10T03:47:09.225Z,101012.91
2018-08-10T03:49:37.490Z,101045.12
2018-08-10T03:52:05.931Z,101032.72
2018-08-10T03:54:34.365Z,101034.69
2018-08-10T03:57:02.708Z,101056.78
2018-08-10T03:59:30.965Z,101027.91
2018-08-10T04:01:59.305Z,101028.78
2018-08-10T04:04:27.896Z,101051.53
2018-08-10T04:06:56.152Z,101049.19
2018-08-10T04:09:25.521Z,101049.47
2018-08-10T04:11:53.790Z,101065.25
2018-08-10T04:14:22.085Z,101061.87
2018-08-10T04:16:50.376Z,101064.47
2018-08-10T04:19:18.714Z,101072.47
2018-08-10T04:21:47.005Z,101064.36
2018-08-10T04:24:15.300Z,101081.60
2018-08-10T04:26:43.565Z,101084.05
2018-08-10T04:29:11.869Z,101098.37
2018-08-10T04:31:40.153Z,101097.87
2018-08-10T04:34:08.481Z,101112.78
2018-08-10T04:36:36.791Z,101115.48
2018-08-10T04:39:09.230Z,101134.22
2018-08-10T04:41:37.513Z,101136.05
2018-08-10T04:44:05.816Z,101156.22
2018-08-10T04:46:34.074Z,101153.58
2018-08-10T04:49:02.437Z,101163.14
2018-08-10T04:51:30.718Z,101164.27
2018-08-10T04:53:58.993Z,101167.08
2018-08-10T04:56:28.357Z,101166.77
2018-08-10T04:58:56.633Z,101177.90
2018-08-10T05:01:24.989Z,101178.07
2018-08-10T05:03:53.285Z,101196.28
2018-08-10T05:06:21.628Z,101199.27
2018-08-10T05:08:51.024Z,101197.96
2018-08-10T05:11:19.310Z,101209.59
2018-08-10T05:13:47.569Z,101208.44
2018-08-10T05:16:15.897Z,101219.16
2018-08-10T05:18:44.180Z,101223.78
2018-08-10T05:21:12.481Z,101231.12
2018-08-10T05:23:40.772Z,101234.70
2018-08-10T05:26:09.090Z,101247.63
2018-08-10T05:28:37.381Z,101260.61
2018-08-10T05:31:05.737Z,101259.05
2018-08-10T05:33:33.995Z,101261.05
2018-08-10T05:36:02.324Z,101267.12
2018-08-10T05:38:30.676Z,101279.64
2018-08-10T05:40:58.966Z,101287.13
2018-08-10T05:43:27.245Z,101315.74
2018-08-10T05:45:55.524Z,101308.97
2018-08-10T05:48:23.832Z,101316.23
2018-08-10T05:50:52.136Z,101331.08
2018-08-10T05:53:20.393Z,101324.77
2018-08-10T05:55:48.680Z,101334.83
2018-08-10T05:58:17.040Z,101347.24
2018-08-10T06:00:45.407Z,101345.66
2018-08-10T06:03:13.635Z,101356.02
2018-08-10T06:05:41.887Z,101363.94
2018-08-10T06:08:10.225Z,101368.57
2018-08-10T06:10:38.557Z,101384.69
2018-08-10T06:13:07.935Z,101377.12
2018-08-10T06:15:36.184Z,101396.13
2018-08-10T06:18:06.897Z,101376.78
2018-08-10T06:20:36.153Z,101397.28
2018-08-10T06:23:04.549Z,101412.30
2018-08-10T06:25:33.849Z,101407.98
2018-08-10T06:28:02.189Z,101413.88
2018-08-10T06:30:30.465Z,101408.81
2018-08-10T06:32:59.833Z,101416.70
2018-08-10T06:35:28.145Z,101431.31
2018-08-10T06:37:56.464Z,101427.66
2018-08-10T06:40:24.765Z,101440.55
2018-08-10T06:42:53.037Z,101444.29
2018-08-10T06:45:21.424Z,101437.09
2018-08-10T06:47:49.600Z,101450.41
2018-08-10T06:50:17.964Z,101441.13
2018-08-10T06:52:46.180Z,101465.95
2018-08-10T06:55:14.493Z,101456.94
2018-08-10T06:57:42.773Z,101453.95
2018-08-10T07:00:11.065Z,101462.93
2018-08-10T07:02:39.336Z,101478.84
2018-08-10T07:05:08.173Z,101493.12
2018-08-10T07:07:36.623Z,101479.84
2018-08-10T07:10:06.225Z,101493.11
2018-08-10T07:12:34.490Z,101486.19
2018-08-10T07:15:02.916Z,101497.05
2018-08-10T07:17:31.178Z,101504.06
2018-08-10T07:19:59.475Z,101511.00
2018-08-10T07:22:27.743Z,101514.95
2018-08-10T07:24:56.042Z,101537.64
2018-08-10T07:27:24.309Z,101533.66
2018-08-10T07:29:52.605Z,101564.27
2018-08-10T07:32:20.892Z,101550.64
2018-08-10T07:34:49.289Z,101565.89
2018-08-10T07:37:17.570Z,101559.69
2018-08-10T07:39:45.826Z,101584.14
2018-08-10T07:42:14.133Z,101578.83
2018-08-10T07:44:42.385Z,101586.17
2018-08-10T07:47:11.701Z,101583.53
2018-08-10T07:49:40.071Z,101598.09
2018-08-10T07:52:08.387Z,101599.23
2018-08-10T07:54:36.619Z,101599.86
2018-08-10T07:57:05.998Z,101595.95
2018-08-10T07:59:35.317Z,101624.06
2018-08-10T08:02:03.669Z,101610.02
2018-08-10T08:04:31.973Z,101634.13
2018-08-10T08:07:00.360Z,101623.43
2018-08-10T08:09:28.633Z,101619.31
2018-08-10T08:11:56.928Z,101623.05
2018-08-10T08:14:25.213Z,101622.96
2018-08-10T08:16:53.570Z,101637.83
2018-08-10T08:19:21.916Z,101638.98
2018-08-10T08:22:08.164Z,101654.59
2018-08-10T08:24:38.213Z,101640.91
2018-08-10T08:27:06.990Z,101663.61
2018-08-10T08:29:35.845Z,101652.30
2018-08-10T08:32:04.533Z,101642.86
2018-08-10T08:34:32.909Z,101661.89
2018-08-10T08:37:01.898Z,101672.59
2018-08-10T08:40:45.681Z,101656.30
2018-08-10T08:43:14.249Z,101662.80
2018-08-10T08:45:48.730Z,101666.58
2018-08-10T08:48:17.090Z,101635.70
2018-08-10T08:50:46.822Z,101678.27
2018-08-10T08:53:15.149Z,101679.12
2018-08-10T08:55:45.794Z,101684.92
2018-08-10T08:58:14.162Z,101709.88
2018-08-10T09:00:42.541Z,101705.05
2018-08-10T09:03:22.076Z,101704.05
2018-08-10T09:05:50.537Z,101715.69
2018-08-10T09:08:18.825Z,101722.48
2018-08-10T09:10:47.145Z,101729.70
2018-08-10T09:13:16.513Z,101764.18
2018-08-10T09:15:44.837Z,101769.19
2018-08-10T09:18:13.175Z,101727.25
2018-08-10T09:20:43.737Z,101745.59
2018-08-10T09:23:12.116Z,101738.77
2018-08-10T09:25:41.504Z,101746.11
2018-08-10T09:28:09.878Z,101762.42
2018-08-10T09:30:38.161Z,101770.05
2018-08-10T09:33:06.990Z,101747.59
2018-08-10T09:35:35.285Z,101747.02
2018-08-10T09:38:03.584Z,101756.02
2018-08-10T09:40:31.885Z,101771.69
2018-08-10T09:43:00.177Z,101764.77
2018-08-10T09:45:29.626Z,101759.27
2018-08-10T09:47:57.873Z,101766.55
2018-08-10T09:50:26.142Z,101763.70
2018-08-10T09:53:04.273Z,101787.50
2018-08-10T09:55:38.708Z,101781.34
2018-08-10T09:58:14.534Z,101783.07
2018-08-10T10:00:48.133Z,101783.73
2018-08-10T10:03:20.525Z,101790.98
2018-08-10T10:05:51.020Z,101817.98
2018-08-10T10:08:19.877Z,101813.83
2018-08-10T10:10:48.133Z,101796.03
2018-08-10T10:13:16.428Z,101801.09
2018-08-10T10:15:44.803Z,101810.98
2018-08-10T10:18:14.373Z,101817.10
2018-08-10T10:20:43.129Z,101827.19
2018-08-10T10:23:11.496Z,101821.92
2018-08-10T10:25:39.785Z,101843.18
2018-08-10T10:28:13.079Z,101822.56
2018-08-10T10:30:41.393Z,101830.88
2018-08-10T10:33:09.749Z,101836.94
2018-08-10T10:35:38.024Z,101843.58
2018-08-10T10:38:06.326Z,101853.52
2018-08-10T10:40:35.693Z,101882.98
2018-08-10T10:43:04.045Z,101891.73
2018-08-10T10:45:32.345Z,101891.86
2018-08-10T10:48:00.625Z,101893.69
2018-08-10T10:50:28.920Z,101886.04
2018-08-10T10:52:57.183Z,101892.94
2018-08-10T10:55:25.523Z,101906.89
2018-08-10T10:57:54.770Z,101903.03
2018-08-10T11:00:24.068Z,101900.00
2018-08-10T11:02:52.377Z,101896.84
2018-08-10T11:05:20.673Z,101905.21
2018-08-10T11:07:48.959Z,101901.48
2018-08-10T11:10:18.442Z,101900.95
2018-08-10T11:12:46.703Z,101911.63
2018-08-10T11:15:15.161Z,101894.69
2018-08-10T11:17:43.446Z,101899.68
2018-08-10T11:20:12.430Z,101906.47
2018-08-10T11:22:41.501Z,101902.17
2018-08-10T11:25:11.636Z,101933.82
2018-08-10T11:27:40.202Z,101927.14
2018-08-10T11:30:09.112Z,101947.96
2018-08-10T11:32:37.520Z,101972.81
2018-08-10T11:35:05.989Z,101993.22
2018-08-10T11:37:34.365Z,101995.52
2018-08-10T11:40:10.079Z,101995.44
2018-08-10T11:42:38.596Z,101992.47
2018-08-10T11:45:09.135Z,101987.00
2018-08-10T11:48:13.134Z,101987.36
2018-08-10T11:50:41.406Z,101988.44
2018-08-10T11:53:09.683Z,101979.94
2018-08-10T11:55:37.937Z,101986.36
2018-08-10T11:58:06.597Z,101991.06
2018-08-10T12:00:34.872Z,102002.56
2018-08-10T12:03:04.221Z,101988.42
2018-08-10T12:05:33.643Z,101989.67
2018-08-10T12:08:01.940Z,101998.22
2018-08-10T12:10:31.257Z,101995.87
2018-08-10T12:12:59.671Z,101997.97
2018-08-10T12:15:27.858Z,101990.38
2018-08-10T12:17:56.517Z,101996.37
2018-08-10T12:20:24.793Z,102014.98
2018-08-10T12:22:53.062Z,102012.17
2018-08-10T12:25:21.361Z,102012.53
2018-08-10T12:27:51.693Z,102033.42
2018-08-10T12:30:20.035Z,102037.92
2018-08-10T12:32:48.219Z,102050.78
2018-08-10T12:35:16.465Z,102091.75
2018-08-10T12:37:46.076Z,102048.47
2018-08-10T12:40:30.268Z,102050.03
2018-08-10T12:42:58.537Z,102047.63
2018-08-10T12:45:28.154Z,102048.75
2018-08-10T12:47:56.457Z,102035.02
2018-08-10T12:50:24.885Z,102034.16
2018-08-10T12:52:53.009Z,102026.19
2018-08-10T12:55:21.302Z,102022.75
2018-08-10T12:57:50.592Z,102019.45
2018-08-10T13:00:18.885Z,102010.45
2018-08-10T13:02:48.281Z,102018.88
2018-08-10T13:05:16.565Z,102027.78
2018-08-10T13:07:44.853Z,102031.24
2018-08-10T13:10:14.694Z,102032.59
2018-08-10T13:12:42.959Z,102030.19
2018-08-10T13:15:12.489Z,102031.86
2018-08-10T13:17:40.794Z,102035.36
2018-08-10T13:20:11.710Z,102031.81
2018-08-10T13:22:40.052Z,102031.92
2018-08-10T13:25:10.006Z,102032.92
2018-08-10T13:27:38.279Z,102029.63
2018-08-10T13:30:08.102Z,102029.73
2018-08-10T13:32:36.473Z,102026.42
2018-08-10T13:35:05.988Z,102027.32
2018-08-10T13:37:35.332Z,102023.22
2018-08-10T13:40:04.447Z,102015.34
2018-08-10T13:42:33.769Z,102016.89
2018-08-10T13:45:02.060Z,102015.05
2018-08-10T13:47:34.040Z,102000.88
2018-08-10T13:50:02.305Z,101999.27
2018-08-10T13:52:30.580Z,101998.90
2018-08-10T13:54:58.841Z,101997.20
2018-08-10T13:57:27.229Z,102002.39
2018-08-10T13:59:55.516Z,102004.16
2018-08-10T14:02:23.798Z,102008.55
2018-08-10T14:04:52.039Z,102008.00
2018-08-10T14:07:21.546Z,102014.33
2018-08-10T14:09:49.815Z,102023.16
2018-08-10T14:12:19.208Z,102013.83
2018-08-10T14:14:47.650Z,102024.02
2018-08-10T14:17:15.916Z,102012.01
2018-08-10T14:19:44.220Z,102011.48
2018-08-10T14:22:12.472Z,102020.64
2018-08-10T14:24:40.773Z,102029.61
2018-08-10T14:27:09.181Z,102025.63
2018-08-10T14:29:37.436Z,102024.88
2018-08-10T14:32:05.693Z,102057.18
2018-08-10T14:34:34.017Z,102040.73
2018-08-10T14:37:02.280Z,102048.00
2018-08-10T14:39:30.554Z,102050.48
2018-08-10T14:41:58.857Z,102076.41
2018-08-10T14:44:28.277Z,102036.80
2018-08-10T14:46:57.611Z,102042.77
2018-08-10T14:49:25.939Z,102041.45
2018-08-10T14:51:54.221Z,102034.75
2018-08-10T14:54:22.648Z,102044.73
2018-08-10T14:56:50.929Z,102039.45
2018-08-10T14:59:19.249Z,102047.35
2018-08-10T15:01:50.937Z,102054.63
2018-08-10T15:04:19.305Z,102065.05
2018-08-10T15:06:47.640Z,102061.09
2018-08-10T15:09:15.940Z,102059.66
2018-08-10T15:11:45.293Z,102052.80
2018-08-10T15:14:13.553Z,102049.42
2018-08-10T15:16:42.833Z,102059.73
2018-08-10T15:19:11.133Z,102056.78
2018-08-10T15:21:40.392Z,102053.58
2018-08-10T15:24:08.648Z,102057.53
2018-08-10T15:26:37.234Z,102062.41
2018-08-10T15:29:05.842Z,102066.22
2018-08-10T15:31:34.133Z,102068.45
2018-08-10T15:34:02.452Z,102065.30
2018-08-10T15:36:30.920Z,102077.08
2018-08-10T15:38:59.184Z,102075.91
2018-08-10T15:41:27.454Z,102081.63
2018-08-10T15:43:55.717Z,102083.09
2018-08-10T15:46:23.969Z,102076.78
2018-08-10T15:48:52.413Z,102079.09
2018-08-10T15:51:21.378Z,102081.91
2018-08-10T15:53:49.629Z,102078.47
2018-08-10T15:56:18.009Z,102091.30
2018-08-10T15:58:46.160Z,102087.69
2018-08-10T16:01:14.501Z,102085.92
2018-08-10T16:03:42.769Z,102066.03
2018-08-10T16:06:11.393Z,102064.15
2018-08-10T16:08:39.752Z,102063.18
2018-08-10T16:11:07.967Z,102065.34
2018-08-10T16:13:36.233Z,102068.36
2018-08-10T16:16:04.598Z,102064.91
2018-08-10T16:18:32.853Z,102050.52
2018-08-10T16:21:01.192Z,102037.13
2018-08-10T16:23:29.452Z,102028.83
2018-08-10T16:25:57.724Z,102023.69
2018-08-10T16:28:26.041Z,102027.28
2018-08-10T16:30:54.518Z,102032.53
2018-08-10T16:33:22.873Z,102020.67
2018-08-10T16:35:51.138Z,102026.69
2018-08-10T16:38:19.461Z,102032.58
2018-08-10T16:40:48.742Z,102032.28
2018-08-10T16:43:17.029Z,102037.31
2018-08-10T16:45:45.291Z,102036.11
2018-08-10T16:48:13.592Z,102027.75
2018-08-10T16:50:44.031Z,102035.69
2018-08-10T16:53:12.170Z,102031.92
2018-08-10T16:55:40.430Z,102027.32
2018-08-10T16:58:08.734Z,102014.08
2018-08-10T17:00:37.094Z,102009.91
2018-08-10T17:03:05.444Z,101997.01
2018-08-10T17:05:33.705Z,101998.48
2018-08-10T17:08:02.122Z,102000.00
2018-08-10T17:10:30.405Z,102000.27
2018-08-10T17:12:58.704Z,102009.28
2018-08-10T17:15:26.985Z,102008.02
2018-08-10T17:17:55.356Z,102014.64
2018-08-10T17:20:23.700Z,102024.03
2018-08-10T17:22:53.017Z,102025.02
2018-08-10T17:25:21.440Z,102020.64
2018-08-10T17:27:50.778Z,102010.33
2018-08-10T17:30:21.097Z,102006.70
2018-08-10T17:32:49.401Z,102012.03
2018-08-10T17:35:18.114Z,102025.94
2018-08-10T17:37:47.033Z,102032.24
2018-08-10T17:40:16.398Z,102026.76
2018-08-10T17:42:46.702Z,102022.84
2018-08-10T17:45:16.341Z,102034.11
2018-08-10T17:47:44.637Z,102031.65
2018-08-10T17:50:14.884Z,102028.62
2018-08-10T17:52:45.250Z,102035.65
2018-08-10T17:55:14.884Z,102027.05
2018-08-10T17:57:43.703Z,102023.50
2018-08-10T18:00:15.006Z,102027.70
2018-08-10T18:02:43.345Z,102015.91
2018-08-10T18:05:13.396Z,102019.80
2018-08-10T18:07:41.729Z,102026.43
2018-08-10T18:10:12.682Z,102021.95
2018-08-10T18:12:41.753Z,102022.19
2018-08-10T18:15:12.045Z,102016.00
2018-08-10T18:17:41.037Z,102021.80
2018-08-10T18:20:13.720Z,102023.56
2018-08-10T18:22:44.065Z,102027.16
2018-08-10T18:25:13.506Z,102020.95
2018-08-10T18:27:42.503Z,102021.45
2018-08-10T18:30:12.983Z,102018.66
2018-08-10T18:32:41.329Z,102026.98
2018-08-10T18:35:10.248Z,102027.47
2018-08-10T18:37:39.968Z,102022.84
2018-08-10T18:41:32.909Z,102028.41
2018-08-10T18:44:01.196Z,102021.91
2018-08-10T18:46:29.462Z,102025.47
2018-08-10T18:48:57.788Z,102028.69
2018-08-10T18:51:26.121Z,102027.61
2018-08-10T18:53:54.392Z,102023.72
2018-08-10T18:56:22.702Z,102030.72
2018-08-10T18:58:50.991Z,102021.62
2018-08-10T19:01:20.308Z,102023.53
2018-08-10T19:03:49.653Z,102020.45
2018-08-10T19:06:17.977Z,102022.45
2018-08-10T19:08:46.284Z,102021.36
2018-08-10T19:11:14.541Z,102017.78
2018-08-10T19:13:42.887Z,102022.00
2018-08-10T19:16:11.193Z,102026.32
2018-08-10T19:18:39.478Z,102026.73
2018-08-10T19:21:07.762Z,102022.84
2018-08-10T19:23:36.069Z,102025.64
2018-08-10T19:26:04.354Z,102023.33
2018-08-10T19:28:32.812Z,102027.50
2018-08-10T19:31:01.068Z,102023.91
2018-08-10T19:33:29.366Z,102019.82
2018-08-10T19:35:57.633Z,102013.88
2018-08-10T19:38:25.898Z,102023.50
2018-08-10T19:40:54.200Z,102020.36
2018-08-10T19:43:22.469Z,102013.70
2018-08-10T19:45:50.761Z,102018.80
2018-08-10T19:48:19.084Z,102012.55
2018-08-10T19:50:47.346Z,102016.80
2018-08-10T19:53:15.621Z,102018.39
2018-08-10T19:55:43.921Z,102019.73
2018-08-10T19:58:12.213Z,102014.78
2018-08-10T20:00:40.592Z,102014.89
2018-08-10T20:03:09.275Z,102022.05
2018-08-10T20:05:37.589Z,102024.86
2018-08-10T20:08:05.853Z,102024.58
2018-08-10T20:10:34.262Z,102028.20
2018-08-10T20:13:02.548Z,102030.08
2018-08-10T20:15:31.182Z,102031.25
2018-08-10T20:17:59.361Z,102028.38
2018-08-10T20:20:27.605Z,102030.04
2018-08-10T20:22:56.057Z,102029.74
2018-08-10T20:25:24.313Z,102026.01
2018-08-10T20:27:52.629Z,102022.00
2018-08-10T20:30:21.940Z,102027.40
2018-08-10T20:32:51.385Z,102017.34
2018-08-10T20:35:20.378Z,102009.52
2018-08-10T20:37:48.908Z,102010.97
2018-08-10T20:40:18.443Z,102012.78
2018-08-10T20:42:47.476Z,102013.27
2018-08-10T20:45:16.766Z,102001.45
2018-08-10T20:47:45.058Z,102009.45
2018-08-10T20:50:16.512Z,102000.47
2018-08-10T20:52:45.405Z,102003.27
2018-08-10T20:55:13.673Z,101998.71
2018-08-10T20:57:42.521Z,101998.11
2018-08-10T21:00:11.333Z,101992.05
2018-08-10T21:02:40.264Z,101994.35
2018-08-10T21:05:08.615Z,101993.97
2018-08-10T21:07:37.904Z,101994.86
2018-08-10T21:10:08.736Z,101992.47
2018-08-10T21:12:37.349Z,101996.09
2018-08-10T21:15:06.605Z,101990.21
2018-08-10T21:17:34.876Z,101988.30
2018-08-10T21:20:03.201Z,101988.83
2018-08-10T21:22:31.449Z,101984.38
2018-08-10T21:24:59.718Z,101981.73
2018-08-10T21:27:28.015Z,101976.14
2018-08-10T21:29:56.253Z,101974.12
2018-08-10T21:32:24.513Z,101969.03
2018-08-10T21:34:53.061Z,101971.95
2018-08-10T21:37:21.356Z,101970.25
2018-08-10T21:39:49.676Z,101965.59
2018-08-10T21:42:18.061Z,101959.76
2018-08-10T21:44:46.345Z,101962.00
2018-08-10T21:47:14.617Z,101957.69
2018-08-10T21:49:42.926Z,101951.18
2018-08-10T21:52:11.233Z,101958.13
2018-08-10T21:54:39.519Z,101955.58
2018-08-10T21:57:07.449Z,101953.66
2018-08-10T21:59:35.748Z,101950.92
2018-08-10T22:02:04.077Z,101948.72
2018-08-10T22:04:32.366Z,101952.06
2018-08-10T22:07:00.656Z,101952.02
2018-08-10T22:09:28.917Z,101948.00
2018-08-10T22:11:57.193Z,101946.86
2018-08-10T22:14:30.662Z,101951.52
2018-08-10T22:17:04.233Z,101941.58
2018-08-10T22:19:32.518Z,101937.08
2018-08-10T22:22:00.803Z,101940.44
2018-08-10T22:24:29.090Z,101942.11
2018-08-10T22:26:57.365Z,101938.35
2018-08-10T22:29:25.672Z,101926.90
2018-08-10T22:31:53.889Z,101925.25
2018-08-10T22:41:22.466Z,101917.38
2018-08-10T22:43:50.757Z,101914.83
2018-08-10T22:46:19.025Z,101917.47
2018-08-10T22:48:47.277Z,101917.02
2018-08-10T22:51:15.766Z,101910.00
2018-08-10T22:53:45.046Z,101908.56
2018-08-10T22:56:13.317Z,101909.41
2018-08-10T22:58:41.621Z,101904.32
2018-08-10T23:01:09.921Z,101897.43
2018-08-10T23:03:38.264Z,101900.20
2018-08-10T23:06:06.634Z,101892.13
2018-08-10T23:08:35.003Z,101896.97
2018-08-10T23:11:03.185Z,101894.63
2018-08-10T23:13:31.508Z,101883.52
2018-08-10T23:16:00.082Z,101886.61
2018-08-10T23:18:28.360Z,101871.44
2018-08-10T23:20:56.613Z,101869.09
2018-08-10T23:23:24.927Z,101859.44
2018-08-10T23:25:53.448Z,101855.88
2018-08-10T23:28:21.748Z,101850.03
2018-08-10T23:30:50.018Z,101847.73
2018-08-10T23:33:18.600Z,101845.73
2018-08-10T23:35:47.821Z,101843.09
2018-08-10T23:38:16.117Z,101836.62
2018-08-10T23:40:44.534Z,101830.18
2018-08-10T23:43:12.817Z,101829.98
2018-08-10T23:45:41.881Z,101820.73
2018-08-10T23:48:10.167Z,101815.23
2018-08-10T23:50:38.420Z,101809.61
2018-08-10T23:53:07.105Z,101810.09
2018-08-10T23:55:35.390Z,101806.83
2018-08-10T23:58:03.781Z,101809.27
